Time;durP1;ratioP1;P1;durP2;ratioP2;P2;SDS_P1;SDS_P2;PMS_P1;PMS_P2;Temp;Humidity;BMP_temperature;BMP_pressure;BME280_temperature;BME280_humidity;BME280_pressure;Samples;Min_cycle;Max_cycle;Signal;HPM_P1;HPM_P2
2022/07/09 00:01:32;;;;;;;5.90;3.95;;;;;;;;;;5053564;28;20214;-77
2022/07/09 00:04:00;;;;;;;4.65;3.75;;;;;;;;;;5053586;28;20651;-77
2022/07/09 00:06:31;;;;;;;5.15;3.75;;;;;;;;;;5052630;28;20285;-77
2022/07/09 00:09:01;;;;;;;4.65;3.80;;;;;;;;;;5053722;28;20628;-77
2022/07/09 00:11:29;;;;;;;6.75;3.80;;;;;;;;;;5053048;28;20234;-76
2022/07/09 00:13:58;;;;;;;4.15;3.65;;;;;;;;;;5053320;28;20199;-76
2022/07/09 00:16:26;;;;;;;5.90;3.70;;;;;;;;;;5052549;28;21715;-77
2022/07/09 00:18:55;;;;;;;4.88;3.70;;;;;;;;;;5053240;28;20319;-77
2022/07/09 00:21:23;;;;;;;5.35;4.13;;;;;;;;;;5053132;28;20215;-77
2022/07/09 00:23:51;;;;;;;5.47;3.60;;;;;;;;;;5053256;28;20682;-77
2022/07/09 00:26:21;;;;;;;8.90;4.00;;;;;;;;;;5052588;28;20595;-77
2022/07/09 00:28:50;;;;;;;5.00;3.55;;;;;;;;;;5052734;28;20211;-77
2022/07/09 00:31:18;;;;;;;6.68;4.05;;;;;;;;;;5053117;28;20218;-77
2022/07/09 00:33:47;;;;;;;5.22;4.13;;;;;;;;;;5053093;28;20663;-77
2022/07/09 00:36:15;;;;;;;4.43;3.90;;;;;;;;;;5052732;28;20220;-77
2022/07/09 00:38:44;;;;;;;4.45;4.05;;;;;;;;;;5053235;28;20257;-76
2022/07/09 00:41:12;;;;;;;5.47;4.68;;;;;;;;;;5045105;28;20199;-77
2022/07/09 00:43:47;;;;;;;5.05;3.95;;;;;;;;;;5044535;28;20207;-76
2022/07/09 00:46:15;;;;;;;6.80;4.38;;;;;;;;;;5052385;28;20631;-77
2022/07/09 00:48:44;;;;;;;5.10;4.37;;;;;;;;;;5052686;28;20203;-76
2022/07/09 00:51:14;;;;;;;4.53;4.13;;;;;;;;;;5052604;28;20203;-77
2022/07/09 00:53:42;;;;;;;5.03;4.30;;;;;;;;;;5052549;28;20195;-77
2022/07/09 00:56:12;;;;;;;4.75;4.32;;;;;;;;;;5052384;28;20683;-76
2022/07/09 00:58:40;;;;;;;6.07;4.50;;;;;;;;;;5044542;28;20203;-77
2022/07/09 01:01:10;;;;;;;8.73;5.47;;;;;;;;;;5052935;28;20207;-77
2022/07/09 01:03:39;;;;;;;7.40;5.20;;;;;;;;;;5053124;28;20215;-77
2022/07/09 01:06:07;;;;;;;8.80;5.60;;;;;;;;;;5052176;28;20227;-77
2022/07/09 01:08:36;;;;;;;7.07;5.20;;;;;;;;;;5052846;28;20691;-76
2022/07/09 01:11:05;;;;;;;6.07;5.30;;;;;;;;;;5052555;28;20626;-76
2022/07/09 01:13:34;;;;;;;8.03;5.57;;;;;;;;;;5053086;28;20188;-77
2022/07/09 01:16:03;;;;;;;5.40;4.80;;;;;;;;;;5051849;28;20220;-77
2022/07/09 01:18:33;;;;;;;8.13;5.37;;;;;;;;;;5052601;28;20235;-76
2022/07/09 01:21:03;;;;;;;7.13;5.33;;;;;;;;;;5052496;28;20203;-77
2022/07/09 01:23:32;;;;;;;7.88;5.18;;;;;;;;;;5045509;28;20207;-77
2022/07/09 01:26:00;;;;;;;6.18;5.35;;;;;;;;;;5044702;28;20228;-77
2022/07/09 01:28:28;;;;;;;8.50;5.93;;;;;;;;;;5035486;28;20661;-77
2022/07/09 01:30:58;;;;;;;7.93;5.75;;;;;;;;;;5042048;28;20207;-77
2022/07/09 01:33:26;;;;;;;8.82;6.07;;;;;;;;;;5055927;28;20207;-76
2022/07/09 01:35:55;;;;;;;6.97;5.88;;;;;;;;;;5055390;28;20699;-77
2022/07/09 01:38:24;;;;;;;6.73;5.63;;;;;;;;;;5055730;28;20203;-76
2022/07/09 01:40:53;;;;;;;7.33;5.53;;;;;;;;;;5055091;28;20644;-77
2022/07/09 01:43:21;;;;;;;6.63;5.50;;;;;;;;;;5056051;28;20214;-77
2022/07/09 01:45:50;;;;;;;6.13;5.53;;;;;;;;;;5055334;28;20310;-77
2022/07/09 01:48:18;;;;;;;8.00;6.47;;;;;;;;;;5055750;28;20207;-77
2022/07/09 01:50:47;;;;;;;8.97;5.80;;;;;;;;;;5055193;28;20325;-77
2022/07/09 01:53:15;;;;;;;6.10;5.37;;;;;;;;;;5056012;28;20210;-77
2022/07/09 01:55:45;;;;;;;7.33;5.53;;;;;;;;;;5054772;28;20230;-77
2022/07/09 01:58:14;;;;;;;6.07;5.47;;;;;;;;;;5055961;28;20203;-77
2022/07/09 02:00:42;;;;;;;7.45;6.00;;;;;;;;;;5055325;28;20214;-77
2022/07/09 02:03:11;;;;;;;9.30;6.93;;;;;;;;;;5051866;28;20208;-77
2022/07/09 02:05:39;;;;;;;8.10;6.87;;;;;;;;;;5054799;28;20223;-77
2022/07/09 02:08:07;;;;;;;9.47;6.27;;;;;;;;;;5055501;28;20230;-77
2022/07/09 02:10:36;;;;;;;8.43;6.30;;;;;;;;;;5054567;28;20211;-77
2022/07/09 02:13:06;;;;;;;9.00;6.80;;;;;;;;;;5054869;28;20203;-77
2022/07/09 02:15:34;;;;;;;8.60;6.97;;;;;;;;;;5054847;28;20227;-77
2022/07/09 02:18:04;;;;;;;9.83;7.07;;;;;;;;;;5054269;28;20290;-77
2022/07/09 02:20:33;;;;;;;8.53;7.47;;;;;;;;;;5052292;28;20204;-77
2022/07/09 02:23:02;;;;;;;10.60;7.23;;;;;;;;;;5040045;28;20674;-77
2022/07/09 02:25:30;;;;;;;11.70;7.73;;;;;;;;;;5054838;28;20280;-77
2022/07/09 02:27:59;;;;;;;9.45;7.53;;;;;;;;;;5054705;28;20226;-77
2022/07/09 02:30:29;;;;;;;7.87;7.07;;;;;;;;;;5054881;28;20203;-77
2022/07/09 02:32:57;;;;;;;8.50;7.60;;;;;;;;;;5053899;28;20218;-77
2022/07/09 02:35:25;;;;;;;9.13;6.95;;;;;;;;;;5054774;28;20633;-77
2022/07/09 02:37:54;;;;;;;7.90;6.43;;;;;;;;;;5048175;28;20258;-77
2022/07/09 02:40:22;;;;;;;7.73;6.90;;;;;;;;;;5054495;28;20257;-77
2022/07/09 02:42:51;;;;;;;8.00;6.53;;;;;;;;;;5054186;28;20211;-77
2022/07/09 02:45:19;;;;;;;8.90;6.87;;;;;;;;;;5050426;28;20231;-77
2022/07/09 02:47:49;;;;;;;9.23;7.70;;;;;;;;;;5046058;28;20690;-77
2022/07/09 02:50:17;;;;;;;7.83;7.03;;;;;;;;;;5054913;28;20211;-77
2022/07/09 02:52:46;;;;;;;9.17;7.33;;;;;;;;;;5034197;28;20199;-76
2022/07/09 02:55:14;;;;;;;8.57;7.67;;;;;;;;;;5034695;28;20750;-77
2022/07/09 02:57:43;;;;;;;10.97;7.57;;;;;;;;;;5050754;28;20204;-77
2022/07/09 03:00:12;;;;;;;10.57;7.87;;;;;;;;;;5046767;28;20199;-77
2022/07/09 03:02:40;;;;;;;10.73;8.10;;;;;;;;;;5037458;28;21574;-77
2022/07/09 03:05:10;;;;;;;10.97;7.60;;;;;;;;;;5054308;28;20223;-77
2022/07/09 03:07:39;;;;;;;10.47;7.70;;;;;;;;;;5037045;28;20253;-76
2022/07/09 03:10:07;;;;;;;9.17;8.17;;;;;;;;;;5054294;28;20211;-77
2022/07/09 03:12:36;;;;;;;12.10;8.07;;;;;;;;;;5053261;28;20668;-77
2022/07/09 03:15:05;;;;;;;11.80;8.27;;;;;;;;;;5054121;28;20702;-77
2022/07/09 03:17:33;;;;;;;11.73;8.43;;;;;;;;;;5053475;28;20285;-77
2022/07/09 03:20:02;;;;;;;12.60;8.27;;;;;;;;;;5054242;28;20668;-77
2022/07/09 03:22:31;;;;;;;9.40;8.43;;;;;;;;;;5053698;28;20208;-77
2022/07/09 03:25:00;;;;;;;10.83;8.60;;;;;;;;;;5044009;28;20220;-77
2022/07/09 03:27:28;;;;;;;14.23;9.00;;;;;;;;;;5051942;28;20226;-77
2022/07/09 03:29:57;;;;;;;12.07;8.33;;;;;;;;;;5053660;28;20203;-77
2022/07/09 03:32:25;;;;;;;13.93;9.20;;;;;;;;;;5054260;28;20637;-77
2022/07/09 03:34:53;;;;;;;12.33;8.77;;;;;;;;;;5053514;28;20230;-77
2022/07/09 03:37:22;;;;;;;10.27;8.63;;;;;;;;;;5053442;28;20210;-77
2022/07/09 03:39:52;;;;;;;12.97;8.83;;;;;;;;;;5033349;28;20211;-77
2022/07/09 03:42:20;;;;;;;12.10;8.80;;;;;;;;;;5049873;28;20207;-77
2022/07/09 03:44:49;;;;;;;13.83;8.60;;;;;;;;;;5053086;28;20626;-77
2022/07/09 03:47:20;;;;;;;12.67;8.63;;;;;;;;;;5053395;28;20207;-77
2022/07/09 03:49:49;;;;;;;12.03;8.33;;;;;;;;;;5049022;28;20199;-77
2022/07/09 03:52:17;;;;;;;10.32;8.63;;;;;;;;;;5052956;28;20206;-77
2022/07/09 03:54:51;;;;;;;10.60;8.47;;;;;;;;;;5039630;28;20595;-77
2022/07/09 03:57:20;;;;;;;13.75;9.20;;;;;;;;;;5053503;28;20206;-77
2022/07/09 03:59:48;;;;;;;12.13;9.00;;;;;;;;;;5053019;28;20207;-77
2022/07/09 04:02:16;;;;;;;14.50;9.30;;;;;;;;;;5053129;28;20210;-77
2022/07/09 04:04:45;;;;;;;12.85;8.73;;;;;;;;;;5052963;28;20286;-77
2022/07/09 04:07:14;;;;;;;11.23;8.67;;;;;;;;;;5053075;28;20571;-77
2022/07/09 04:09:43;;;;;;;12.48;8.93;;;;;;;;;;5052554;28;20269;-77
2022/07/09 04:12:15;;;;;;;13.33;9.30;;;;;;;;;;5053004;28;20222;-77
2022/07/09 04:14:44;;;;;;;15.27;8.93;;;;;;;;;;5053036;28;20632;-77
2022/07/09 04:17:12;;;;;;;10.40;8.27;;;;;;;;;;5052784;28;20211;-77
2022/07/09 04:19:41;;;;;;;10.47;8.27;;;;;;;;;;5052806;28;20625;-77
2022/07/09 04:22:09;;;;;;;12.40;8.47;;;;;;;;;;5052523;28;20195;-77
2022/07/09 04:24:38;;;;;;;10.55;8.18;;;;;;;;;;5053077;28;20253;-77
2022/07/09 04:27:07;;;;;;;14.33;8.53;;;;;;;;;;5040311;28;20191;-77
2022/07/09 04:29:37;;;;;;;10.23;8.10;;;;;;;;;;5052680;28;20230;-77
2022/07/09 04:32:06;;;;;;;11.35;7.93;;;;;;;;;;5053316;28;20568;-77
2022/07/09 04:34:34;;;;;;;11.60;7.90;;;;;;;;;;5053316;28;20652;-77
2022/07/09 04:37:03;;;;;;;13.97;7.50;;;;;;;;;;5052406;28;20203;-77
2022/07/09 04:39:31;;;;;;;9.77;7.20;;;;;;;;;;5033893;28;20211;-77
2022/07/09 04:42:00;;;;;;;9.17;7.63;;;;;;;;;;5044811;28;20218;-77
2022/07/09 04:44:28;;;;;;;9.63;8.00;;;;;;;;;;5052460;28;20206;-77
2022/07/09 04:47:00;;;;;;;11.60;7.63;;;;;;;;;;5052833;28;20631;-77
2022/07/09 04:49:28;;;;;;;9.27;7.15;;;;;;;;;;5051978;28;20615;-77
2022/07/09 04:51:56;;;;;;;12.25;7.28;;;;;;;;;;5052472;28;20218;-77
2022/07/09 04:54:25;;;;;;;10.83;7.20;;;;;;;;;;5052688;28;20203;-77
2022/07/09 04:56:53;;;;;;;9.05;7.00;;;;;;;;;;5052574;28;20223;-77
2022/07/09 04:59:22;;;;;;;13.40;7.80;;;;;;;;;;5052526;28;20280;-77
2022/07/09 05:01:50;;;;;;;10.15;7.53;;;;;;;;;;5052934;28;20203;-77
2022/07/09 05:04:20;;;;;;;10.63;7.10;;;;;;;;;;5056446;28;20560;-76
2022/07/09 05:06:49;;;;;;;9.57;7.70;;;;;;;;;;5055898;28;20337;-77
2022/07/09 05:09:20;;;;;;;9.73;7.38;;;;;;;;;;5055873;28;20276;-77
2022/07/09 05:11:49;;;;;;;9.43;7.60;;;;;;;;;;5055303;28;20218;-77
2022/07/09 05:14:17;;;;;;;10.43;7.13;;;;;;;;;;5056424;28;20199;-77
2022/07/09 05:16:46;;;;;;;8.65;7.13;;;;;;;;;;5055895;28;20226;-77
2022/07/09 05:19:14;;;;;;;9.05;7.00;;;;;;;;;;5055642;28;20218;-76
2022/07/09 05:21:44;;;;;;;12.05;7.70;;;;;;;;;;5055801;28;20558;-77
2022/07/09 05:24:12;;;;;;;8.35;6.85;;;;;;;;;;5056299;28;20264;-77
2022/07/09 05:26:41;;;;;;;8.73;6.90;;;;;;;;;;5054604;28;20281;-77
2022/07/09 05:29:09;;;;;;;10.10;6.88;;;;;;;;;;5055984;28;20223;-76
2022/07/09 05:31:38;;;;;;;9.98;7.20;;;;;;;;;;5051250;28;20204;-77
2022/07/09 05:34:07;;;;;;;10.80;7.18;;;;;;;;;;5036347;28;20227;-77
2022/07/09 05:36:39;;;;;;;9.52;6.95;;;;;;;;;;5047385;28;20280;-77
2022/07/09 05:39:08;;;;;;;9.32;6.28;;;;;;;;;;5056162;28;20184;-77
2022/07/09 05:41:37;;;;;;;7.00;6.28;;;;;;;;;;5055928;28;20249;-77
2022/07/09 05:44:06;;;;;;;9.23;6.57;;;;;;;;;;5055972;28;20612;-76
2022/07/09 05:49:17;;;;;;;11.80;6.97;;;;;;;;;;5051720;28;20227;-77
2022/07/09 05:51:46;;;;;;;8.00;6.80;;;;;;;;;;5055485;28;20219;-77
2022/07/09 05:54:15;;;;;;;10.15;6.60;;;;;;;;;;5055779;28;20203;-77
2022/07/09 05:56:44;;;;;;;10.90;6.40;;;;;;;;;;5055021;28;20215;-77
2022/07/09 05:59:13;;;;;;;10.15;6.80;;;;;;;;;;5048678;28;20203;-76
2022/07/09 06:01:42;;;;;;;8.85;5.93;;;;;;;;;;5054487;28;20211;-77
2022/07/09 06:04:11;;;;;;;8.82;6.50;;;;;;;;;;5055802;28;20226;-77
2022/07/09 06:06:40;;;;;;;7.47;5.88;;;;;;;;;;5053456;28;20219;-77
2022/07/09 06:09:08;;;;;;;8.88;6.20;;;;;;;;;;5054723;28;20219;-77
2022/07/09 06:11:38;;;;;;;9.80;6.45;;;;;;;;;;5054329;28;20263;-77
2022/07/09 06:14:07;;;;;;;8.05;6.03;;;;;;;;;;5036509;28;20215;-76
2022/07/09 06:16:35;;;;;;;10.77;7.03;;;;;;;;;;5053784;28;20996;-77
2022/07/09 06:19:04;;;;;;;11.30;6.95;;;;;;;;;;5042086;28;20207;-77
2022/07/09 06:21:32;;;;;;;9.85;7.07;;;;;;;;;;5054611;28;20648;-77
2022/07/09 06:24:01;;;;;;;9.57;6.60;;;;;;;;;;5053724;28;20606;-77
2022/07/09 06:26:30;;;;;;;11.02;6.55;;;;;;;;;;5054592;28;20237;-77
2022/07/09 06:29:00;;;;;;;7.63;6.57;;;;;;;;;;5054500;28;20338;-77
2022/07/09 06:31:29;;;;;;;8.48;5.80;;;;;;;;;;5054447;28;20196;-77
2022/07/09 06:33:58;;;;;;;8.82;5.68;;;;;;;;;;5046993;28;20199;-77
2022/07/09 06:36:28;;;;;;;6.82;5.82;;;;;;;;;;5054492;28;20718;-76
2022/07/09 06:41:42;;;;;;;9.25;5.78;;;;;;;;;;5042923;28;20653;-77
2022/07/09 06:44:12;;;;;;;7.75;5.28;;;;;;;;;;5036358;28;20669;-76
2022/07/09 06:46:41;;;;;;;6.00;4.55;;;;;;;;;;5047747;28;20229;-76
2022/07/09 06:49:09;;;;;;;7.60;4.60;;;;;;;;;;5054061;28;20230;-76
2022/07/09 06:51:38;;;;;;;8.15;5.40;;;;;;;;;;5051258;28;20211;-77
2022/07/09 06:54:06;;;;;;;5.63;4.10;;;;;;;;;;5053813;28;20199;-77
2022/07/09 06:56:35;;;;;;;5.88;4.70;;;;;;;;;;5050475;28;20238;-77
2022/07/09 06:59:03;;;;;;;6.00;4.70;;;;;;;;;;5048591;28;20192;-78
2022/07/09 07:01:36;;;;;;;7.45;4.50;;;;;;;;;;5053882;28;20199;-76
2022/07/09 07:04:05;;;;;;;10.77;5.07;;;;;;;;;;5036611;28;20192;-77
2022/07/09 07:06:34;;;;;;;5.90;4.45;;;;;;;;;;5053440;28;20231;-77
2022/07/09 07:09:05;;;;;;;9.02;4.47;;;;;;;;;;5046195;28;20214;-79
2022/07/09 07:11:36;;;;;;;7.43;4.63;;;;;;;;;;5045695;28;20218;-79
2022/07/09 07:14:05;;;;;;;6.72;4.35;;;;;;;;;;5048207;28;20222;-79
2022/07/09 07:16:35;;;;;;;5.55;4.25;;;;;;;;;;5051998;28;20230;-79
2022/07/09 07:19:04;;;;;;;8.43;3.42;;;;;;;;;;5057702;28;20767;-78
2022/07/09 07:21:32;;;;;;;5.47;3.85;;;;;;;;;;5054071;28;20253;-79
2022/07/09 07:24:01;;;;;;;5.10;3.50;;;;;;;;;;5053113;28;20215;-79
2022/07/09 07:26:29;;;;;;;4.03;3.03;;;;;;;;;;5053657;28;20227;-79
2022/07/09 07:28:58;;;;;;;3.65;3.17;;;;;;;;;;5054238;28;20219;-79
2022/07/09 07:31:26;;;;;;;3.63;2.90;;;;;;;;;;5054066;28;20213;-78
2022/07/09 07:33:56;;;;;;;3.45;3.15;;;;;;;;;;5046677;28;20211;-78
2022/07/09 07:36:25;;;;;;;3.60;2.83;;;;;;;;;;5034420;28;20250;-78
2022/07/09 07:38:54;;;;;;;3.25;2.83;;;;;;;;;;5033755;28;20216;-77
2022/07/09 07:41:23;;;;;;;6.45;3.05;;;;;;;;;;5052904;28;20197;-78
2022/07/09 07:43:51;;;;;;;4.93;2.80;;;;;;;;;;5051655;28;20203;-79
2022/07/09 07:46:19;;;;;;;5.32;2.30;;;;;;;;;;5038102;28;20288;-79
2022/07/09 07:48:48;;;;;;;5.22;2.80;;;;;;;;;;5053235;28;20256;-80
2022/07/09 07:51:18;;;;;;;3.30;2.60;;;;;;;;;;5053061;28;20223;-79
2022/07/09 07:53:46;;;;;;;7.40;2.78;;;;;;;;;;5053649;28;20203;-79
2022/07/09 07:56:15;;;;;;;5.63;2.60;;;;;;;;;;5052836;28;20277;-80
2022/07/09 07:58:44;;;;;;;3.85;2.80;;;;;;;;;;5053652;28;20234;-79
2022/07/09 08:01:12;;;;;;;3.17;2.17;;;;;;;;;;5052718;28;20203;-78
2022/07/09 08:03:41;;;;;;;4.18;2.47;;;;;;;;;;5049206;28;20203;-79
2022/07/09 08:06:09;;;;;;;4.55;2.30;;;;;;;;;;5053209;28;20223;-78
2022/07/09 08:08:39;;;;;;;3.40;2.17;;;;;;;;;;5053156;28;20596;-79
2022/07/09 08:11:07;;;;;;;5.50;2.42;;;;;;;;;;5052956;28;20223;-80
2022/07/09 08:13:36;;;;;;;2.67;2.30;;;;;;;;;;5053681;28;20211;-78
2022/07/09 08:16:04;;;;;;;2.97;2.10;;;;;;;;;;5045657;28;20873;-78
2022/07/09 08:18:33;;;;;;;3.13;2.00;;;;;;;;;;5051796;28;20234;-79
2022/07/09 08:21:03;;;;;;;3.33;2.30;;;;;;;;;;5033202;28;20290;-79
2022/07/09 08:23:31;;;;;;;4.32;2.33;;;;;;;;;;5033199;28;20213;-80
2022/07/09 08:26:01;;;;;;;4.07;2.10;;;;;;;;;;5033300;28;20762;-79
2022/07/09 08:28:29;;;;;;;3.45;2.75;;;;;;;;;;5033434;28;20200;-79
2022/07/09 08:30:58;;;;;;;3.55;2.60;;;;;;;;;;5032898;28;20234;-78
2022/07/09 08:33:26;;;;;;;4.03;2.38;;;;;;;;;;5033289;28;20207;-79
2022/07/09 08:35:55;;;;;;;3.80;2.22;;;;;;;;;;5033402;28;20228;-79
2022/07/09 08:38:24;;;;;;;2.28;2.08;;;;;;;;;;5036914;28;20203;-79
2022/07/09 08:40:53;;;;;;;4.20;2.47;;;;;;;;;;5054431;28;20199;-78
2022/07/09 08:43:23;;;;;;;4.28;2.60;;;;;;;;;;5037132;28;20265;-80
2022/07/09 08:45:52;;;;;;;5.25;2.88;;;;;;;;;;5054449;28;20230;-79
2022/07/09 08:48:21;;;;;;;3.28;2.33;;;;;;;;;;5057168;28;20695;-77
2022/07/09 08:50:50;;;;;;;2.92;2.00;;;;;;;;;;5057251;28;20568;-78
2022/07/09 08:53:19;;;;;;;6.25;2.78;;;;;;;;;;5057032;28;20211;-80
2022/07/09 08:55:47;;;;;;;2.60;2.40;;;;;;;;;;5057039;28;20298;-79
2022/07/09 08:58:16;;;;;;;2.58;2.28;;;;;;;;;;5048270;28;20298;-79
2022/07/09 09:00:46;;;;;;;2.28;2.08;;;;;;;;;;5055738;28;20206;-79
2022/07/09 09:03:14;;;;;;;2.92;1.98;;;;;;;;;;5056159;28;20206;-79
2022/07/09 09:05:43;;;;;;;4.40;2.25;;;;;;;;;;5056873;28;20392;-79
2022/07/09 09:08:22;;;;;;;4.22;2.30;;;;;;;;;;5042953;28;20253;-79
2022/07/09 09:10:50;;;;;;;4.25;2.22;;;;;;;;;;5053302;28;20688;-80
2022/07/09 09:13:19;;;;;;;3.88;2.08;;;;;;;;;;5045064;28;20203;-78
2022/07/09 09:15:48;;;;;;;2.53;2.13;;;;;;;;;;5046744;28;20233;-78
2022/07/09 09:18:17;;;;;;;2.13;2.00;;;;;;;;;;5043351;28;20199;-79
2022/07/09 09:20:46;;;;;;;2.58;2.00;;;;;;;;;;5055902;28;20201;-78
2022/07/09 09:23:18;;;;;;;3.42;2.08;;;;;;;;;;5050039;28;20208;-79
2022/07/09 09:25:46;;;;;;;3.58;2.13;;;;;;;;;;5047780;28;20615;-80
2022/07/09 09:28:15;;;;;;;3.67;2.40;;;;;;;;;;5056018;28;20214;-77
2022/07/09 09:30:46;;;;;;;3.40;2.15;;;;;;;;;;5050783;28;20219;-79
2022/07/09 09:33:18;;;;;;;3.65;2.20;;;;;;;;;;5035951;28;20208;-79
2022/07/09 09:35:47;;;;;;;2.47;2.03;;;;;;;;;;5046912;28;20226;-79
2022/07/09 09:38:16;;;;;;;4.00;2.50;;;;;;;;;;5056052;28;20203;-79
2022/07/09 09:40:47;;;;;;;3.03;1.98;;;;;;;;;;5056055;28;20199;-80
2022/07/09 09:43:15;;;;;;;3.63;2.30;;;;;;;;;;5056304;28;20229;-79
2022/07/09 09:45:44;;;;;;;3.97;2.33;;;;;;;;;;5059459;28;20763;-80
2022/07/09 09:48:13;;;;;;;2.38;2.10;;;;;;;;;;5062336;28;20652;-79
2022/07/09 09:50:43;;;;;;;4.60;2.13;;;;;;;;;;5055361;28;20289;-78
2022/07/09 09:53:12;;;;;;;3.83;2.08;;;;;;;;;;5040901;28;20219;-80
2022/07/09 09:55:40;;;;;;;3.97;2.03;;;;;;;;;;5055565;28;20222;-80
2022/07/09 09:58:11;;;;;;;2.40;2.05;;;;;;;;;;5054966;28;20207;-79
2022/07/09 10:00:40;;;;;;;2.20;2.00;;;;;;;;;;5055772;28;20620;-79
2022/07/09 10:03:09;;;;;;;2.28;2.00;;;;;;;;;;5035990;28;20203;-78
2022/07/09 10:05:38;;;;;;;2.50;2.10;;;;;;;;;;5053778;28;20647;-79
2022/07/09 10:08:08;;;;;;;2.15;1.80;;;;;;;;;;5053448;28;20203;-78
2022/07/09 10:10:36;;;;;;;2.78;2.08;;;;;;;;;;5054869;28;20631;-78
2022/07/09 10:13:05;;;;;;;2.65;1.70;;;;;;;;;;5035062;28;20253;-78
2022/07/09 10:15:34;;;;;;;1.98;1.77;;;;;;;;;;5035263;28;20277;-78
2022/07/09 10:18:11;;;;;;;4.65;1.77;;;;;;;;;;5050906;28;20206;-78
2022/07/09 10:20:39;;;;;;;2.30;1.80;;;;;;;;;;5055600;28;20207;-79
2022/07/09 10:23:09;;;;;;;4.13;2.00;;;;;;;;;;5054811;28;20594;-80
2022/07/09 10:25:44;;;;;;;2.78;1.92;;;;;;;;;;5055494;28;20231;-78
2022/07/09 10:28:16;;;;;;;4.10;1.90;;;;;;;;;;5055118;28;20210;-79
2022/07/09 10:30:45;;;;;;;3.70;3.10;;;;;;;;;;5055325;28;20198;-79
2022/07/09 10:33:14;;;;;;;2.10;1.80;;;;;;;;;;5054873;28;20214;-79
2022/07/09 10:35:44;;;;;;;2.20;1.88;;;;;;;;;;5055078;28;20688;-79
2022/07/09 10:38:14;;;;;;;2.35;1.70;;;;;;;;;;5055476;28;20207;-78
2022/07/09 10:40:43;;;;;;;2.15;1.80;;;;;;;;;;5054831;28;20188;-79
2022/07/09 10:43:12;;;;;;;2.88;1.50;;;;;;;;;;5055114;28;20195;-78
2022/07/09 10:45:44;;;;;;;2.10;1.70;;;;;;;;;;5054856;28;20223;-79
2022/07/09 10:48:14;;;;;;;1.80;1.70;;;;;;;;;;5054569;28;20299;-79
2022/07/09 10:50:43;;;;;;;2.72;1.60;;;;;;;;;;5054786;28;20211;-80
2022/07/09 10:53:13;;;;;;;2.90;1.65;;;;;;;;;;5054448;28;20223;-78
2022/07/09 10:55:43;;;;;;;2.40;1.60;;;;;;;;;;5054830;28;20600;-80
2022/07/09 10:58:18;;;;;;;2.28;1.50;;;;;;;;;;5054986;28;20668;-80
2022/07/09 11:00:48;;;;;;;2.28;1.40;;;;;;;;;;5052821;28;20186;-78
2022/07/09 11:03:17;;;;;;;2.30;1.70;;;;;;;;;;5054755;28;20227;-76
2022/07/09 11:05:46;;;;;;;3.22;1.55;;;;;;;;;;5054654;28;20230;-80
2022/07/09 11:08:16;;;;;;;1.50;1.40;;;;;;;;;;5054647;28;20206;-78
2022/07/09 11:10:44;;;;;;;2.05;1.67;;;;;;;;;;5054559;28;20214;-79
2022/07/09 11:13:18;;;;;;;1.58;1.48;;;;;;;;;;5053849;28;20219;-79
2022/07/09 11:15:46;;;;;;;1.92;1.50;;;;;;;;;;5054321;28;20633;-79
2022/07/09 11:18:15;;;;;;;3.92;1.10;;;;;;;;;;5054207;28;20627;-79
2022/07/09 11:20:45;;;;;;;1.63;1.50;;;;;;;;;;5054059;28;20214;-79
2022/07/09 11:23:14;;;;;;;3.42;1.35;;;;;;;;;;5053892;28;20203;-79
2022/07/09 11:25:46;;;;;;;1.73;1.42;;;;;;;;;;5053606;28;20719;-78
2022/07/09 11:28:20;;;;;;;2.38;1.45;;;;;;;;;;5054287;28;20262;-79
2022/07/09 11:30:58;;;;;;;2.25;1.33;;;;;;;;;;5054044;28;20191;-77
2022/07/09 11:33:28;;;;;;;1.50;1.25;;;;;;;;;;5053612;28;20226;-78
2022/07/09 11:36:02;;;;;;;1.83;1.30;;;;;;;;;;5042708;28;20582;-78
2022/07/09 11:38:30;;;;;;;2.55;1.10;;;;;;;;;;5033636;28;20212;-77
2022/07/09 11:41:03;;;;;;;1.30;1.20;;;;;;;;;;5040283;28;20203;-78
2022/07/09 11:43:32;;;;;;;1.45;1.20;;;;;;;;;;5052024;28;20748;-77
2022/07/09 11:46:02;;;;;;;2.42;1.40;;;;;;;;;;5053663;28;20691;-78
2022/07/09 11:48:31;;;;;;;1.60;1.10;;;;;;;;;;5053922;28;20184;-78
2022/07/09 11:50:59;;;;;;;2.20;1.00;;;;;;;;;;5053179;28;20207;-78
2022/07/09 11:53:28;;;;;;;2.30;1.20;;;;;;;;;;5053615;28;20585;-78
2022/07/09 11:56:00;;;;;;;1.05;0.95;;;;;;;;;;5053678;28;20691;-76
2022/07/09 11:58:30;;;;;;;1.67;1.20;;;;;;;;;;5053494;28;20210;-78
2022/07/09 12:00:59;;;;;;;1.20;0.90;;;;;;;;;;5053572;28;20203;-77
2022/07/09 12:03:29;;;;;;;1.58;1.00;;;;;;;;;;5053154;28;20249;-77
2022/07/09 12:05:58;;;;;;;1.10;1.00;;;;;;;;;;5053245;28;20237;-79
2022/07/09 12:08:28;;;;;;;2.22;1.17;;;;;;;;;;5053418;28;20203;-76
2022/07/09 12:10:56;;;;;;;0.77;0.77;;;;;;;;;;5052670;28;20218;-78
2022/07/09 12:13:25;;;;;;;1.95;1.13;;;;;;;;;;5053160;28;20599;-78
2022/07/09 12:15:55;;;;;;;1.13;1.02;;;;;;;;;;5053158;28;20562;-78
2022/07/09 12:18:23;;;;;;;1.13;1.00;;;;;;;;;;5052922;28;20325;-77
2022/07/09 12:20:52;;;;;;;1.20;1.10;;;;;;;;;;5052715;28;20207;-77
2022/07/09 12:23:21;;;;;;;1.20;1.05;;;;;;;;;;5053217;28;20268;-79
2022/07/09 12:25:49;;;;;;;1.20;1.10;;;;;;;;;;5033790;28;20227;-78
2022/07/09 12:28:18;;;;;;;1.38;0.98;;;;;;;;;;5032858;28;20664;-79
2022/07/09 12:30:46;;;;;;;1.60;0.90;;;;;;;;;;5033096;28;20199;-78
2022/07/09 12:33:16;;;;;;;5.07;1.00;;;;;;;;;;5032826;28;20230;-78
2022/07/09 12:35:45;;;;;;;2.30;0.90;;;;;;;;;;5033481;28;20624;-77
2022/07/09 12:38:13;;;;;;;2.60;1.15;;;;;;;;;;5032919;28;20208;-77
2022/07/09 12:40:41;;;;;;;1.27;1.13;;;;;;;;;;5036363;28;20245;-78
2022/07/09 12:43:10;;;;;;;1.10;1.00;;;;;;;;;;5053026;28;20225;-79
2022/07/09 12:45:38;;;;;;;3.20;1.20;;;;;;;;;;5052638;28;20223;-77
2022/07/09 12:48:07;;;;;;;2.47;1.00;;;;;;;;;;5052948;28;20233;-77
2022/07/09 12:50:37;;;;;;;2.53;1.27;;;;;;;;;;5052922;28;20207;-78
2022/07/09 12:53:05;;;;;;;2.20;1.10;;;;;;;;;;5052551;28;20219;-77
2022/07/09 12:55:34;;;;;;;1.90;1.10;;;;;;;;;;5052517;28;20699;-78
2022/07/09 12:58:22;;;;;;;1.58;1.15;;;;;;;;;;5052477;28;20211;-77
2022/07/09 13:00:51;;;;;;;1.27;1.00;;;;;;;;;;5052451;28;20229;-77
2022/07/09 13:03:19;;;;;;;3.58;1.10;;;;;;;;;;5052836;28;20207;-79
2022/07/09 13:05:49;;;;;;;2.97;1.10;;;;;;;;;;5052691;28;20223;-77
2022/07/09 13:08:18;;;;;;;1.83;1.00;;;;;;;;;;5052572;28;20207;-78
2022/07/09 13:10:49;;;;;;;1.23;1.10;;;;;;;;;;5052024;28;20300;-76
2022/07/09 13:13:18;;;;;;;1.98;1.05;;;;;;;;;;5052588;28;20219;-77
2022/07/09 13:15:46;;;;;;;1.55;1.00;;;;;;;;;;5052249;28;20292;-79
2022/07/09 13:18:17;;;;;;;3.28;1.30;;;;;;;;;;5052431;28;20207;-77
2022/07/09 13:20:46;;;;;;;3.22;1.20;;;;;;;;;;5052197;28;20198;-78
2022/07/09 13:23:16;;;;;;;1.73;1.00;;;;;;;;;;5053709;28;20203;-77
2022/07/09 13:25:45;;;;;;;2.88;1.30;;;;;;;;;;5055884;28;20223;-79
2022/07/09 13:28:13;;;;;;;1.70;1.30;;;;;;;;;;5055427;28;20210;-78
2022/07/09 13:30:42;;;;;;;5.18;1.35;;;;;;;;;;5054522;28;20207;-76
2022/07/09 13:33:10;;;;;;;1.13;1.02;;;;;;;;;;5054991;28;20757;-77
2022/07/09 13:35:39;;;;;;;1.88;0.98;;;;;;;;;;5054932;28;20258;-77
2022/07/09 13:38:07;;;;;;;2.97;1.30;;;;;;;;;;5055481;28;20199;-78
2022/07/09 13:40:37;;;;;;;2.63;1.10;;;;;;;;;;5054905;28;20249;-78
2022/07/09 13:43:05;;;;;;;2.97;1.20;;;;;;;;;;5054892;28;20195;-79
2022/07/09 13:45:34;;;;;;;2.60;1.15;;;;;;;;;;5054638;28;20223;-78
2022/07/09 13:48:03;;;;;;;3.42;1.80;;;;;;;;;;5054711;28;20215;-78
2022/07/09 13:50:31;;;;;;;2.65;2.40;;;;;;;;;;5055021;28;20214;-78
2022/07/09 13:53:01;;;;;;;2.90;1.38;;;;;;;;;;5054375;28;20223;-78
2022/07/09 13:55:29;;;;;;;3.15;1.20;;;;;;;;;;5055150;28;20231;-78
2022/07/09 13:58:01;;;;;;;1.60;1.20;;;;;;;;;;5054233;28;20290;-77
2022/07/09 14:00:31;;;;;;;2.85;1.25;;;;;;;;;;5054938;28;20249;-76
2022/07/09 14:02:59;;;;;;;5.40;1.30;;;;;;;;;;5054155;28;20678;-78
2022/07/09 14:05:28;;;;;;;2.58;1.20;;;;;;;;;;5054585;28;20219;-79
2022/07/09 14:07:58;;;;;;;4.18;1.30;;;;;;;;;;5054231;28;20207;-77
2022/07/09 14:10:26;;;;;;;3.28;1.15;;;;;;;;;;5054632;28;20203;-77
2022/07/09 14:12:55;;;;;;;1.63;1.23;;;;;;;;;;5055352;28;20526;-78
2022/07/09 14:15:24;;;;;;;3.72;1.52;;;;;;;;;;5055163;28;20277;-79
2022/07/09 14:17:53;;;;;;;1.98;1.10;;;;;;;;;;5055619;28;20206;-78
2022/07/09 14:20:21;;;;;;;2.58;1.38;;;;;;;;;;5055413;28;20234;-79
2022/07/09 14:22:50;;;;;;;2.47;1.30;;;;;;;;;;5055176;28;20203;-76
2022/07/09 14:25:19;;;;;;;2.85;1.13;;;;;;;;;;5055444;28;20227;-79
2022/07/09 14:27:47;;;;;;;2.05;1.40;;;;;;;;;;5055073;28;20199;-78
2022/07/09 14:30:16;;;;;;;3.90;1.33;;;;;;;;;;5055000;28;20203;-80
2022/07/09 14:32:45;;;;;;;3.45;1.20;;;;;;;;;;5054764;28;20199;-77
2022/07/09 14:35:14;;;;;;;2.97;1.15;;;;;;;;;;5054834;28;20223;-78
2022/07/09 14:37:42;;;;;;;3.42;1.52;;;;;;;;;;5054566;28;20211;-78
2022/07/09 14:40:12;;;;;;;4.57;1.45;;;;;;;;;;5055050;28;20207;-78
2022/07/09 14:42:40;;;;;;;3.47;1.30;;;;;;;;;;5054543;28;20214;-78
2022/07/09 14:45:09;;;;;;;3.13;1.10;;;;;;;;;;5054651;28;20223;-78
2022/07/09 14:47:38;;;;;;;1.75;1.20;;;;;;;;;;5054166;28;20203;-77
2022/07/09 14:50:08;;;;;;;3.83;1.20;;;;;;;;;;5054924;28;20199;-77
2022/07/09 14:52:39;;;;;;;2.20;1.08;;;;;;;;;;5054775;28;20191;-78
2022/07/09 14:55:08;;;;;;;3.17;1.58;;;;;;;;;;5054506;28;20227;-78
2022/07/09 14:57:37;;;;;;;2.13;1.40;;;;;;;;;;5054647;28;20610;-78